Time;durP1;ratioP1;P1;durP2;ratioP2;P2;SDS_P1;SDS_P2;PMS_P1;PMS_P2;Temp;Humidity;BMP_temperature;BMP_pressure;BME280_temperature;BME280_humidity;BME280_pressure;Samples;Min_cycle;Max_cycle;Signal;HPM_P1;HPM_P2
2021/03/09 00:01:59;;;;;;;11.37;8.10;;;1.60;99.90;;;;;;4992495;28;20195;-69
2021/03/09 00:04:25;;;;;;;12.67;9.70;;;1.60;99.90;;;;;;4992563;28;20267;-69
2021/03/09 00:06:50;;;;;;;11.47;8.30;;;1.50;99.90;;;;;;4992659;28;20183;-69
2021/03/09 00:09:16;;;;;;;9.90;8.50;;;1.50;99.90;;;;;;4992592;28;20207;-69
2021/03/09 00:11:41;;;;;;;11.40;7.97;;;1.40;99.90;;;;;;4992662;28;20257;-69
2021/03/09 00:14:07;;;;;;;11.13;8.57;;;1.40;99.90;;;;;;4992246;28;20241;-69
2021/03/09 00:16:32;;;;;;;11.10;9.20;;;1.40;99.90;;;;;;4992373;28;20349;-69
2021/03/09 00:18:58;;;;;;;9.67;7.83;;;1.40;99.90;;;;;;4992762;28;20258;-69
2021/03/09 00:21:23;;;;;;;9.27;8.37;;;1.40;99.90;;;;;;4992421;28;20620;-69
2021/03/09 00:23:49;;;;;;;9.70;7.97;;;1.30;99.90;;;;;;4991710;28;20191;-69
2021/03/09 00:26:14;;;;;;;10.80;8.60;;;1.30;99.90;;;;;;4992263;28;20186;-68
2021/03/09 00:28:40;;;;;;;10.87;7.90;;;1.20;99.90;;;;;;4992199;28;20538;-69
2021/03/09 00:31:05;;;;;;;12.60;8.27;;;1.20;99.90;;;;;;4992341;28;20195;-69
2021/03/09 00:33:31;;;;;;;12.20;8.83;;;1.20;99.90;;;;;;4991862;28;20183;-69
2021/03/09 00:35:57;;;;;;;10.40;8.23;;;1.20;99.90;;;;;;4991831;28;20729;-69
2021/03/09 00:38:23;;;;;;;11.63;8.23;;;1.30;99.90;;;;;;4992230;28;20182;-69
2021/03/09 00:40:49;;;;;;;10.20;7.73;;;1.30;99.90;;;;;;4991759;28;20465;-69
2021/03/09 00:43:14;;;;;;;11.90;8.60;;;1.30;99.90;;;;;;4991660;28;20190;-69
2021/03/09 00:45:41;;;;;;;9.90;8.83;;;1.30;99.90;;;;;;4991545;28;20179;-69
2021/03/09 00:48:06;;;;;;;14.37;9.77;;;1.40;99.90;;;;;;4992042;28;20176;-69
2021/03/09 00:50:32;;;;;;;13.27;8.17;;;1.30;99.90;;;;;;4991769;28;20812;-69
2021/03/09 00:52:58;;;;;;;9.77;8.73;;;1.20;99.90;;;;;;4991774;28;20187;-69
2021/03/09 00:55:23;;;;;;;13.00;8.27;;;1.20;99.90;;;;;;4991210;28;20399;-68
2021/03/09 00:57:57;;;;;;;11.20;9.10;;;1.10;99.90;;;;;;4991598;28;20207;-68
2021/03/09 01:00:23;;;;;;;10.73;8.53;;;1.10;99.90;;;;;;4990600;28;20214;-68
2021/03/09 01:02:49;;;;;;;10.43;8.90;;;1.00;99.90;;;;;;4991105;28;20434;-68
2021/03/09 01:05:15;;;;;;;12.00;9.77;;;1.00;99.90;;;;;;4991171;28;20924;-69
2021/03/09 01:07:40;;;;;;;15.57;10.70;;;1.00;99.90;;;;;;4991462;28;20175;-69
2021/03/09 01:10:06;;;;;;;12.30;10.13;;;0.90;99.90;;;;;;4991495;28;20450;-69
2021/03/09 01:12:32;;;;;;;14.87;11.10;;;0.90;99.90;;;;;;4990961;28;20633;-68
2021/03/09 01:14:58;;;;;;;11.13;9.93;;;0.90;99.90;;;;;;4989730;28;20427;-68
2021/03/09 01:17:23;;;;;;;11.73;10.10;;;0.90;99.90;;;;;;4991718;28;20664;-68
2021/03/09 01:19:49;;;;;;;12.13;10.83;;;1.00;99.90;;;;;;4991398;28;20727;-68
2021/03/09 01:22:14;;;;;;;17.77;12.43;;;1.00;99.90;;;;;;4990948;28;20185;-69
2021/03/09 01:24:40;;;;;;;13.13;10.70;;;1.00;99.90;;;;;;4990661;28;20183;-68
2021/03/09 01:27:06;;;;;;;13.27;9.70;;;0.90;99.90;;;;;;4991061;28;20184;-68
2021/03/09 01:29:31;;;;;;;14.37;11.13;;;1.00;99.90;;;;;;4991338;28;20186;-68
2021/03/09 01:31:57;;;;;;;14.77;9.50;;;0.90;99.90;;;;;;4990538;28;20469;-69
2021/03/09 01:34:22;;;;;;;11.20;9.30;;;0.80;99.90;;;;;;4990614;28;20572;-68
2021/03/09 01:36:48;;;;;;;13.23;9.80;;;0.90;99.90;;;;;;4990676;28;20579;-68
2021/03/09 01:39:14;;;;;;;15.20;11.00;;;0.80;99.90;;;;;;4991233;28;20263;-68
2021/03/09 01:41:39;;;;;;;19.93;11.37;;;0.80;99.90;;;;;;4990947;28;20203;-68
2021/03/09 01:44:05;;;;;;;13.27;10.17;;;0.70;99.90;;;;;;4991001;28;20238;-68
2021/03/09 01:46:33;;;;;;;13.70;11.10;;;0.70;99.90;;;;;;4990957;28;20424;-68
2021/03/09 01:48:59;;;;;;;13.67;10.57;;;0.70;99.90;;;;;;4991044;28;20186;-69
2021/03/09 01:51:24;;;;;;;12.27;10.97;;;0.70;99.90;;;;;;4990450;28;20450;-68
2021/03/09 01:53:50;;;;;;;14.67;10.43;;;0.70;99.90;;;;;;4990613;28;20237;-69
2021/03/09 01:56:16;;;;;;;14.80;11.40;;;0.70;99.90;;;;;;4990745;28;20217;-69
2021/03/09 01:58:47;;;;;;;17.47;10.23;;;0.80;99.90;;;;;;4990864;28;20434;-68
2021/03/09 02:01:13;;;;;;;11.40;9.33;;;0.70;99.90;;;;;;4990468;28;20195;-68
2021/03/09 02:03:38;;;;;;;10.07;8.90;;;0.60;99.90;;;;;;4990299;28;20449;-68
2021/03/09 02:06:04;;;;;;;13.93;10.63;;;0.60;99.90;;;;;;4990569;28;20924;-69
2021/03/09 02:08:30;;;;;;;12.80;10.37;;;0.60;99.90;;;;;;4990773;28;20187;-69
2021/03/09 02:10:56;;;;;;;13.80;10.87;;;0.60;99.90;;;;;;4989994;28;20734;-68
2021/03/09 02:13:35;;;;;;;14.60;10.27;;;0.60;99.90;;;;;;4992799;28;20654;-68
2021/03/09 02:16:25;;;;;;;16.00;11.03;;;0.60;99.90;;;;;;4994783;28;20345;-69
2021/03/09 02:19:09;;;;;;;15.17;11.30;;;0.60;99.90;;;;;;4987803;28;20842;-68
2021/03/09 02:21:54;;;;;;;14.40;10.33;;;0.60;99.90;;;;;;4994221;28;20450;-68
2021/03/09 02:24:41;;;;;;;13.60;10.67;;;0.60;99.90;;;;;;4994080;28;20862;-68
2021/03/09 02:27:07;;;;;;;14.20;10.30;;;0.60;99.90;;;;;;4994522;28;20438;-68
2021/03/09 02:30:17;;;;;;;14.57;11.30;;;0.50;99.90;;;;;;4994405;28;20441;-68
2021/03/09 02:32:58;;;;;;;11.70;10.00;;;0.50;99.90;;;;;;4965397;28;20439;-69
2021/03/09 02:35:27;;;;;;;13.87;11.10;;;0.50;99.90;;;;;;4991423;28;20441;-68
2021/03/09 02:37:57;;;;;;;13.87;11.20;;;0.40;99.90;;;;;;4993895;28;20973;-68
2021/03/09 02:40:25;;;;;;;13.70;10.63;;;0.40;99.90;;;;;;4993962;28;20971;-68
2021/03/09 02:42:55;;;;;;;12.87;11.50;;;0.40;99.90;;;;;;4994870;28;20442;-68
2021/03/09 02:45:22;;;;;;;18.63;11.97;;;0.40;99.90;;;;;;4993730;28;20430;-68
2021/03/09 02:47:50;;;;;;;16.60;11.20;;;0.40;99.90;;;;;;4994328;28;20454;-68
2021/03/09 02:50:21;;;;;;;13.83;10.90;;;0.40;99.90;;;;;;4993732;28;20454;-68
2021/03/09 02:52:52;;;;;;;11.67;9.90;;;0.40;99.90;;;;;;4993646;28;20470;-69
2021/03/09 02:55:19;;;;;;;16.27;11.30;;;0.40;99.90;;;;;;4993601;28;20549;-68
2021/03/09 02:57:47;;;;;;;19.43;13.20;;;0.40;99.90;;;;;;5009229;28;20532;-68
2021/03/09 03:00:13;;;;;;;18.83;13.30;;;0.40;99.90;;;;;;4993692;28;20450;-68
2021/03/09 03:02:40;;;;;;;12.50;10.60;;;0.30;99.90;;;;;;4993960;28;21608;-68
2021/03/09 03:05:09;;;;;;;12.97;9.80;;;0.30;99.90;;;;;;4993619;28;20426;-68
2021/03/09 03:07:36;;;;;;;14.43;11.50;;;0.30;99.90;;;;;;4993272;28;20431;-68
2021/03/09 03:10:05;;;;;;;12.87;10.67;;;0.20;99.90;;;;;;4993666;28;20434;-68
2021/03/09 03:12:32;;;;;;;14.13;11.23;;;0.20;99.90;;;;;;4993474;28;20442;-68
2021/03/09 03:15:00;;;;;;;15.93;11.17;;;0.20;99.90;;;;;;4993484;28;20818;-68
2021/03/09 03:17:29;;;;;;;14.43;11.70;;;0.20;99.90;;;;;;4993751;28;20947;-68
2021/03/09 03:19:56;;;;;;;13.73;10.80;;;0.20;99.90;;;;;;4993684;28;20622;-68
2021/03/09 03:22:24;;;;;;;14.70;12.80;;;0.20;99.90;;;;;;4993427;28;20442;-68
2021/03/09 03:24:51;;;;;;;14.30;11.73;;;0.20;99.90;;;;;;4991784;28;20518;-68
2021/03/09 03:27:18;;;;;;;14.17;10.37;;;0.10;99.90;;;;;;4993011;28;20445;-68
2021/03/09 03:29:44;;;;;;;14.30;11.20;;;0.20;99.90;;;;;;4992044;28;20569;-68
2021/03/09 03:32:09;;;;;;;16.23;12.20;;;0.20;99.90;;;;;;4993474;28;20779;-68
2021/03/09 03:34:35;;;;;;;13.23;10.83;;;0.30;99.90;;;;;;4992984;28;20514;-68
2021/03/09 03:37:01;;;;;;;14.33;11.20;;;0.30;99.90;;;;;;4993612;28;20220;-68
2021/03/09 03:39:27;;;;;;;13.00;11.03;;;0.20;99.90;;;;;;4993281;28;20238;-68
2021/03/09 03:41:53;;;;;;;16.13;12.30;;;0.10;99.90;;;;;;5008516;28;20928;-68
2021/03/09 03:44:19;;;;;;;16.60;11.77;;;0.10;99.90;;;;;;4989418;28;20454;-68
2021/03/09 03:46:44;;;;;;;15.30;11.77;;;0.10;99.90;;;;;;4992828;28;20550;-67
2021/03/09 03:49:10;;;;;;;13.43;10.67;;;0.10;99.90;;;;;;4993277;28;20545;-68
2021/03/09 03:51:41;;;;;;;13.10;11.60;;;0.10;99.90;;;;;;4992825;28;20286;-67
2021/03/09 03:54:34;;;;;;;13.83;11.40;;;0.10;99.90;;;;;;4992658;28;20219;-68
2021/03/09 03:57:16;;;;;;;14.93;11.30;;;0.10;99.90;;;;;;4992377;28;20462;-68
2021/03/09 03:59:46;;;;;;;18.23;11.30;;;0.10;99.90;;;;;;4992478;28;20473;-68
2021/03/09 04:02:14;;;;;;;13.30;10.60;;;0.10;99.90;;;;;;4992709;28;20423;-68
2021/03/09 04:04:45;;;;;;;17.73;12.27;;;0.00;99.90;;;;;;4992242;28;21100;-68
2021/03/09 04:07:10;;;;;;;16.50;12.10;;;0.00;99.90;;;;;;4992404;28;20469;-68
2021/03/09 04:09:37;;;;;;;13.30;11.73;;;0.00;99.90;;;;;;4993079;28;20470;-68
2021/03/09 04:12:04;;;;;;;16.70;11.40;;;-0.10;99.90;;;;;;5007397;28;20223;-69
2021/03/09 04:14:32;;;;;;;15.20;11.13;;;-0.10;99.90;;;;;;4992008;28;20500;-68
2021/03/09 04:17:00;;;;;;;16.00;11.07;;;-0.10;99.90;;;;;;4992439;28;20837;-68
2021/03/09 04:19:26;;;;;;;15.43;12.17;;;-0.10;99.90;;;;;;4992297;28;20438;-68
2021/03/09 04:21:53;;;;;;;18.77;10.40;;;-0.10;99.90;;;;;;4992725;28;20505;-68
2021/03/09 04:24:19;;;;;;;13.50;11.37;;;0.00;99.90;;;;;;4992059;28;20438;-68
2021/03/09 04:26:46;;;;;;;15.80;11.77;;;0.00;99.90;;;;;;4992413;28;20449;-68
2021/03/09 04:29:13;;;;;;;13.13;11.10;;;-0.10;99.90;;;;;;4992607;28;20477;-68
2021/03/09 04:31:41;;;;;;;17.00;11.20;;;-0.10;99.90;;;;;;4992534;28;20455;-68
2021/03/09 04:34:07;;;;;;;14.80;10.37;;;-0.10;99.90;;;;;;4990704;28;20439;-68
2021/03/09 04:36:34;;;;;;;15.90;11.20;;;-0.10;99.90;;;;;;4992062;28;20514;-68
2021/03/09 04:39:02;;;;;;;14.57;10.60;;;-0.10;99.90;;;;;;5007385;28;20933;-68
2021/03/09 04:41:28;;;;;;;14.23;11.00;;;-0.10;99.90;;;;;;4992507;28;20489;-68
2021/03/09 04:43:54;;;;;;;17.60;11.33;;;-0.20;99.90;;;;;;4992013;28;20932;-68
2021/03/09 04:46:21;;;;;;;16.00;12.77;;;-0.10;99.90;;;;;;4992106;28;20437;-68
2021/03/09 04:48:47;;;;;;;13.53;10.73;;;-0.20;99.90;;;;;;4993337;28;20183;-68
2021/03/09 04:51:15;;;;;;;16.30;12.23;;;-0.20;99.90;;;;;;4991953;28;20553;-68
2021/03/09 04:53:41;;;;;;;20.37;12.97;;;-0.30;99.90;;;;;;4991633;28;20438;-67
2021/03/09 04:56:08;;;;;;;13.20;11.50;;;-0.20;99.90;;;;;;4992049;28;20467;-68
2021/03/09 04:58:35;;;;;;;14.30;11.83;;;-0.20;99.90;;;;;;4993264;28;20870;-68
2021/03/09 05:01:01;;;;;;;17.17;11.77;;;-0.20;99.90;;;;;;4991742;28;20458;-69
2021/03/09 05:03:27;;;;;;;13.33;11.53;;;-0.20;99.90;;;;;;4991586;28;20437;-68
2021/03/09 05:05:53;;;;;;;14.57;10.73;;;-0.20;99.90;;;;;;4991976;28;20438;-68
2021/03/09 05:08:19;;;;;;;14.67;11.57;;;-0.20;99.90;;;;;;4999952;28;20574;-68
2021/03/09 05:10:45;;;;;;;13.53;11.10;;;-0.10;99.90;;;;;;4991506;28;20964;-68
2021/03/09 05:13:11;;;;;;;14.57;10.77;;;-0.20;99.90;;;;;;4990524;28;20442;-68
2021/03/09 05:15:36;;;;;;;14.80;11.27;;;-0.20;99.90;;;;;;4990956;28;20721;-68
2021/03/09 05:18:03;;;;;;;14.20;11.53;;;-0.40;99.90;;;;;;4991331;28;20226;-68
2021/03/09 05:20:29;;;;;;;17.33;12.37;;;-0.40;99.90;;;;;;4991616;28;20554;-68
2021/03/09 05:22:55;;;;;;;17.67;12.57;;;-0.40;99.90;;;;;;4990925;28;20435;-68
2021/03/09 05:25:20;;;;;;;18.60;13.20;;;-0.40;99.90;;;;;;4990777;28;20435;-68
2021/03/09 05:27:47;;;;;;;13.73;12.07;;;-0.30;99.90;;;;;;4989885;28;20188;-68
2021/03/09 05:30:14;;;;;;;14.90;12.00;;;-0.30;99.90;;;;;;4990825;28;20203;-68
2021/03/09 05:32:40;;;;;;;18.70;12.67;;;-0.30;99.90;;;;;;4991631;28;20431;-68
2021/03/09 05:35:06;;;;;;;16.83;13.40;;;-0.20;99.90;;;;;;4989965;28;20858;-68
2021/03/09 05:37:33;;;;;;;19.10;12.20;;;-0.30;99.90;;;;;;4991079;28;20294;-68
2021/03/09 05:39:58;;;;;;;16.70;13.10;;;-0.30;99.90;;;;;;4990680;28;20442;-68
2021/03/09 05:42:24;;;;;;;18.07;12.40;;;-0.30;99.90;;;;;;4991446;28;20946;-69
2021/03/09 05:44:50;;;;;;;20.20;13.53;;;-0.30;99.90;;;;;;4990739;28;20184;-68
2021/03/09 05:47:16;;;;;;;18.10;13.57;;;-0.30;99.90;;;;;;4990357;28;20287;-68
2021/03/09 05:49:45;;;;;;;18.77;13.27;;;-0.30;99.90;;;;;;4989885;28;20513;-68
2021/03/09 05:52:11;;;;;;;18.20;13.63;;;-0.30;99.90;;;;;;4989373;28;20234;-68
2021/03/09 05:54:37;;;;;;;16.03;12.70;;;-0.30;99.90;;;;;;4990390;28;20446;-68
2021/03/09 05:57:02;;;;;;;19.33;16.70;;;-0.30;99.90;;;;;;4990457;28;20635;-68
2021/03/09 05:59:28;;;;;;;21.87;14.43;;;-0.30;99.90;;;;;;4990378;28;20737;-68
2021/03/09 06:01:54;;;;;;;21.13;14.10;;;-0.30;99.90;;;;;;4989934;28;20790;-68
2021/03/09 06:04:20;;;;;;;22.93;13.33;;;-0.30;99.90;;;;;;4990163;28;20184;-68
2021/03/09 06:06:46;;;;;;;20.83;12.73;;;-0.30;99.90;;;;;;4990820;28;20956;-68
2021/03/09 06:09:33;;;;;;;22.10;14.07;;;-0.30;99.90;;;;;;4990326;28;20191;-68
2021/03/09 06:12:28;;;;;;;17.10;13.60;;;-0.20;99.90;;;;;;4982440;28;20451;-69
2021/03/09 06:15:00;;;;;;;18.37;13.63;;;-0.10;99.90;;;;;;4985569;28;20445;-68
2021/03/09 06:17:27;;;;;;;57.20;35.37;;;0.00;99.90;;;;;;4990058;28;20546;-69
2021/03/09 06:19:53;;;;;;;23.17;15.73;;;0.10;99.90;;;;;;4990454;28;20457;-68
2021/03/09 06:22:20;;;;;;;21.40;13.83;;;0.10;99.90;;;;;;4990429;28;20423;-68
2021/03/09 06:24:47;;;;;;;18.33;15.23;;;0.10;99.90;;;;;;4992248;28;20497;-68
2021/03/09 06:27:26;;;;;;;17.40;13.50;;;0.10;99.90;;;;;;4990726;28;20438;-68
2021/03/09 06:29:52;;;;;;;17.23;13.70;;;0.20;99.90;;;;;;4990090;28;20869;-68
2021/03/09 06:32:18;;;;;;;20.07;15.00;;;0.30;99.90;;;;;;4990149;28;20442;-68
2021/03/09 06:34:43;;;;;;;15.67;13.33;;;0.40;99.90;;;;;;4992223;28;20522;-68
2021/03/09 06:37:23;;;;;;;20.33;13.27;;;0.50;99.90;;;;;;4990811;28;20204;-68
2021/03/09 06:40:06;;;;;;;20.73;14.00;;;0.60;99.90;;;;;;4990273;28;20175;-68
2021/03/09 06:42:32;;;;;;;17.47;13.47;;;0.70;99.90;;;;;;4990791;28;20563;-67
2021/03/09 06:45:12;;;;;;;18.10;15.33;;;0.80;99.90;;;;;;4990405;28;20509;-68
2021/03/09 06:47:39;;;;;;;20.47;14.80;;;0.80;99.90;;;;;;4990873;28;20744;-68
2021/03/09 06:50:07;;;;;;;19.90;14.37;;;0.90;99.90;;;;;;4989744;28;20446;-68
2021/03/09 06:52:33;;;;;;;18.90;15.20;;;0.90;99.90;;;;;;4991332;28;20575;-68
2021/03/09 06:54:59;;;;;;;24.47;14.60;;;1.00;99.90;;;;;;4990180;28;20518;-68
2021/03/09 06:57:25;;;;;;;22.43;14.60;;;1.20;99.90;;;;;;4990689;28;20258;-68
2021/03/09 06:59:53;;;;;;;16.37;13.27;;;1.30;99.90;;;;;;4993020;28;20184;-68
2021/03/09 07:02:21;;;;;;;19.73;14.60;;;1.40;99.90;;;;;;4994195;28;20415;-68
2021/03/09 07:05:07;;;;;;;15.90;14.17;;;1.40;99.90;;;;;;4994441;28;20434;-68
2021/03/09 07:07:38;;;;;;;18.87;13.90;;;1.40;99.90;;;;;;4997309;28;20990;-68
2021/03/09 07:10:05;;;;;;;18.07;13.30;;;1.60;99.90;;;;;;4994281;28;20468;-68
2021/03/09 07:12:31;;;;;;;20.40;13.77;;;1.80;99.90;;;;;;4993096;28;20434;-68
2021/03/09 07:14:58;;;;;;;17.27;14.17;;;1.90;99.90;;;;;;4993325;28;20461;-68
2021/03/09 07:17:26;;;;;;;16.67;14.30;;;2.20;99.90;;;;;;4993228;28;20513;-68
2021/03/09 07:19:53;;;;;;;19.10;14.83;;;2.30;99.90;;;;;;4993684;28;20438;-68
2021/03/09 07:22:21;;;;;;;18.10;14.90;;;2.50;99.90;;;;;;4993346;28;20469;-66
2021/03/09 07:25:05;;;;;;;22.13;15.17;;;2.60;99.90;;;;;;4993455;28;20423;-65
2021/03/09 07:27:42;;;;;;;22.07;15.70;;;2.80;99.90;;;;;;4993621;28;20441;-66
2021/03/09 07:30:10;;;;;;;16.20;14.20;;;2.90;99.90;;;;;;4993718;28;20446;-67
2021/03/09 07:32:42;;;;;;;25.87;20.10;;;2.90;99.90;;;;;;4993451;28;20453;-67
2021/03/09 07:35:08;;;;;;;19.17;16.00;;;3.20;99.90;;;;;;4989905;28;20462;-67
2021/03/09 07:37:39;;;;;;;23.60;15.80;;;3.30;99.90;;;;;;4988478;28;20565;-67
2021/03/09 07:40:07;;;;;;;28.00;16.27;;;3.60;99.90;;;;;;4993148;28;20831;-67
2021/03/09 07:42:33;;;;;;;27.83;16.23;;;3.70;99.90;;;;;;4993199;28;20423;-67
2021/03/09 07:45:01;;;;;;;25.20;17.70;;;4.00;99.90;;;;;;4993122;28;20797;-67
2021/03/09 07:47:27;;;;;;;21.90;17.07;;;4.30;99.90;;;;;;4993175;28;20172;-68
2021/03/09 07:49:53;;;;;;;26.00;18.27;;;4.40;99.90;;;;;;4991704;28;20435;-67
2021/03/09 07:52:22;;;;;;;22.73;17.20;;;4.30;99.90;;;;;;4993107;28;20430;-67
2021/03/09 07:55:03;;;;;;;24.33;17.43;;;4.50;99.90;;;;;;4991088;28;20805;-68
2021/03/09 07:57:30;;;;;;;23.93;17.33;;;4.60;99.90;;;;;;4998386;28;20492;-68
2021/03/09 08:00:00;;;;;;;19.43;17.03;;;4.40;99.90;;;;;;4992403;28;20529;-68
2021/03/09 08:02:43;;;;;;;22.53;18.70;;;4.50;99.90;;;;;;4992199;28;20483;-68
2021/03/09 08:05:10;;;;;;;27.53;17.30;;;4.60;99.90;;;;;;4992190;28;20807;-68
2021/03/09 08:08:11;;;;;;;23.83;18.73;;;4.30;99.90;;;;;;4992909;28;20438;-68
2021/03/09 08:10:38;;;;;;;23.63;17.83;;;4.20;99.90;;;;;;4966877;28;20853;-68
2021/03/09 08:13:07;;;;;;;22.23;18.33;;;4.10;99.90;;;;;;4980246;28;20478;-68
2021/03/09 08:15:36;;;;;;;31.70;18.33;;;4.20;99.90;;;;;;4991793;28;20434;-68
2021/03/09 08:18:16;;;;;;;21.20;16.47;;;4.30;99.90;;;;;;4991418;28;20470;-68
2021/03/09 08:20:58;;;;;;;21.57;17.07;;;4.40;99.90;;;;;;4992619;28;20512;-68
2021/03/09 08:23:36;;;;;;;21.60;17.50;;;4.80;99.90;;;;;;4991672;28;20477;-68
2021/03/09 08:26:30;;;;;;;23.93;18.33;;;4.80;99.90;;;;;;4992028;28;20442;-68
2021/03/09 08:28:56;;;;;;;22.57;17.10;;;5.00;99.90;;;;;;4981652;28;20955;-68
2021/03/09 08:31:22;;;;;;;25.53;18.50;;;5.40;99.90;;;;;;4990714;28;20451;-67
2021/03/09 08:34:04;;;;;;;19.80;17.53;;;5.70;99.90;;;;;;4991819;28;20295;-68
2021/03/09 08:36:33;;;;;;;28.13;19.40;;;6.10;99.90;;;;;;4984992;28;20613;-68
2021/03/09 08:39:13;;;;;;;24.10;18.00;;;6.50;99.90;;;;;;4992118;28;20438;-68
2021/03/09 08:41:41;;;;;;;25.50;19.60;;;6.50;99.90;;;;;;4992418;28;20458;-67
2021/03/09 08:44:21;;;;;;;24.57;19.23;;;6.60;99.90;;;;;;4991414;28;20431;-67
2021/03/09 08:47:11;;;;;;;23.50;17.60;;;6.80;99.90;;;;;;4991474;28;20489;-67
2021/03/09 08:49:37;;;;;;;29.37;18.00;;;6.90;99.90;;;;;;4991278;28;20474;-67
2021/03/09 08:52:05;;;;;;;26.37;19.90;;;7.00;99.90;;;;;;4989923;28;21022;-67
2021/03/09 08:54:38;;;;;;;25.60;19.80;;;7.00;99.90;;;;;;4991735;28;20215;-67
2021/03/09 08:57:10;;;;;;;21.40;18.90;;;6.90;99.90;;;;;;4992050;28;20879;-67
2021/03/09 08:59:38;;;;;;;22.10;17.50;;;6.90;99.90;;;;;;4992153;28;20473;-68
2021/03/09 09:02:18;;;;;;;22.53;16.90;;;7.20;99.90;;;;;;4991847;28;20478;-67
2021/03/09 09:04:55;;;;;;;20.20;17.30;;;7.40;99.90;;;;;;4990410;28;20463;-68
2021/03/09 09:07:39;;;;;;;22.83;16.53;;;7.80;99.90;;;;;;4991181;28;20438;-68
2021/03/09 09:10:18;;;;;;;24.03;17.67;;;8.10;99.90;;;;;;4989381;28;20482;-68
2021/03/09 09:12:49;;;;;;;23.10;18.10;;;8.60;99.90;;;;;;4991351;28;20568;-68
2021/03/09 09:15:26;;;;;;;23.43;18.43;;;8.90;99.90;;;;;;4991039;28;20435;-68
2021/03/09 09:18:02;;;;;;;22.83;17.20;;;9.20;99.90;;;;;;4990693;28;20472;-68
2021/03/09 09:20:32;;;;;;;19.80;16.50;;;9.50;99.90;;;;;;4985982;28;20442;-68
2021/03/09 09:23:14;;;;;;;20.00;17.90;;;9.70;99.90;;;;;;4981347;28;20427;-68
2021/03/09 09:25:42;;;;;;;18.77;16.80;;;9.60;99.90;;;;;;4990775;28;20591;-68
2021/03/09 09:28:08;;;;;;;19.30;16.50;;;9.40;99.90;;;;;;4991150;28;20427;-68
2021/03/09 09:30:42;;;;;;;18.30;16.37;;;9.30;99.90;;;;;;4991082;28;20455;-68
2021/03/09 09:33:11;;;;;;;19.90;17.83;;;9.00;99.90;;;;;;4991214;28;20434;-68
2021/03/09 09:35:38;;;;;;;18.80;14.90;;;9.20;99.90;;;;;;4990534;28;20458;-68
2021/03/09 09:38:06;;;;;;;18.70;15.33;;;9.30;99.90;;;;;;4990360;28;20458;-68
2021/03/09 09:40:35;;;;;;;20.70;15.27;;;9.50;99.80;;;;;;4990958;28;20478;-67
2021/03/09 09:43:07;;;;;;;20.80;16.60;;;9.60;99.80;;;;;;4991107;28;20505;-67
2021/03/09 09:45:58;;;;;;;21.80;17.43;;;9.60;99.90;;;;;;4990176;28;20455;-67
2021/03/09 09:48:29;;;;;;;19.90;17.03;;;9.60;99.90;;;;;;4990013;28;20845;-68
2021/03/09 09:51:00;;;;;;;17.90;15.80;;;9.70;99.40;;;;;;4991163;28;20455;-68
2021/03/09 09:53:31;;;;;;;18.77;15.90;;;10.00;99.00;;;;;;4990279;28;20514;-67
2021/03/09 09:55:57;;;;;;;21.90;17.73;;;10.20;98.20;;;;;;4989125;28;20435;-68
2021/03/09 09:58:37;;;;;;;20.93;18.60;;;10.40;97.90;;;;;;4990831;28;20427;-68
2021/03/09 10:01:03;;;;;;;17.57;15.40;;;10.40;97.10;;;;;;4991242;28;20509;-67
2021/03/09 10:03:28;;;;;;;18.43;14.83;;;10.30;96.90;;;;;;4989946;28;20442;-67
2021/03/09 10:05:54;;;;;;;16.07;14.47;;;10.20;96.80;;;;;;4990865;28;20192;-67
2021/03/09 10:08:35;;;;;;;16.70;14.00;;;10.60;95.80;;;;;;4990047;28;21113;-67
2021/03/09 10:11:03;;;;;;;18.80;13.97;;;10.60;95.30;;;;;;4990210;28;20199;-67
2021/03/09 10:13:29;;;;;;;18.30;15.37;;;10.60;95.50;;;;;;4988317;28;20517;-67
2021/03/09 10:15:54;;;;;;;15.73;14.03;;;10.60;94.90;;;;;;4989101;28;20542;-67
2021/03/09 10:18:32;;;;;;;13.73;12.37;;;11.20;94.50;;;;;;4990031;28;20260;-68
2021/03/09 10:21:06;;;;;;;10.60;9.60;;;11.30;92.60;;;;;;4990412;28;20226;-68
2021/03/09 10:23:49;;;;;;;7.30;6.60;;;11.30;90.80;;;;;;4989676;28;20433;-68
2021/03/09 10:26:14;;;;;;;9.70;8.23;;;11.60;84.50;;;;;;4988575;28;20446;-68
2021/03/09 10:28:40;;;;;;;9.87;8.23;;;12.00;82.90;;;;;;4990309;28;20492;-67
2021/03/09 10:31:12;;;;;;;7.80;7.20;;;12.20;81.50;;;;;;4990145;28;20202;-68
2021/03/09 10:33:38;;;;;;;9.77;8.87;;;12.30;78.80;;;;;;4988991;28;20517;-68
2021/03/09 10:36:10;;;;;;;9.00;7.20;;;12.60;76.90;;;;;;4993571;28;20439;-68
2021/03/09 10:38:37;;;;;;;9.40;8.50;;;12.70;75.10;;;;;;4993918;28;20692;-68
2021/03/09 10:41:03;;;;;;;7.03;6.40;;;12.50;73.90;;;;;;4992206;28;20466;-68
2021/03/09 10:43:49;;;;;;;13.30;8.23;;;12.60;72.30;;;;;;4992783;28;20623;-68
2021/03/09 10:46:14;;;;;;;9.10;8.20;;;12.70;73.00;;;;;;4987390;28;20500;-68
2021/03/09 10:48:41;;;;;;;8.90;8.10;;;12.70;72.50;;;;;;4993619;28;20951;-68
2021/03/09 10:51:20;;;;;;;10.07;9.07;;;12.90;72.00;;;;;;4993074;28;20211;-68
2021/03/09 10:53:46;;;;;;;10.00;8.80;;;13.00;70.90;;;;;;4990771;28;20434;-68
2021/03/09 10:56:13;;;;;;;9.97;9.07;;;13.30;69.30;;;;;;4993367;28;20454;-68
2021/03/09 10:58:39;;;;;;;12.03;10.83;;;14.10;67.10;;;;;;4993297;28;20892;-68
2021/03/09 11:01:05;;;;;;;10.03;8.33;;;14.10;65.00;;;;;;4993629;28;20513;-68
2021/03/09 11:03:30;;;;;;;9.40;8.50;;;14.40;63.80;;;;;;4992877;28;20873;-68
2021/03/09 11:05:56;;;;;;;10.20;9.20;;;14.30;63.80;;;;;;4993324;28;21383;-68
2021/03/09 11:08:23;;;;;;;9.00;8.20;;;14.30;62.80;;;;;;4992589;28;20302;-68
2021/03/09 11:10:51;;;;;;;10.17;9.10;;;14.60;61.80;;;;;;4992775;28;20192;-68
2021/03/09 11:13:17;;;;;;;9.90;9.10;;;14.80;59.50;;;;;;4992939;28;20501;-68
2021/03/09 11:15:42;;;;;;;9.90;9.10;;;14.50;60.00;;;;;;4992750;28;20422;-68
2021/03/09 11:18:08;;;;;;;11.03;10.13;;;14.00;61.20;;;;;;4992215;28;20461;-69
2021/03/09 11:20:33;;;;;;;11.07;10.10;;;13.50;59.60;;;;;;4992992;28;20292;-68
2021/03/09 11:22:59;;;;;;;10.70;9.77;;;12.90;60.80;;;;;;4993363;28;20307;-68
2021/03/09 11:25:26;;;;;;;11.53;10.53;;;12.90;61.80;;;;;;4992581;28;20234;-67
2021/03/09 11:27:52;;;;;;;11.80;10.60;;;13.00;61.60;;;;;;4991367;28;20215;-66
2021/03/09 11:30:18;;;;;;;11.97;10.67;;;12.40;63.00;;;;;;4993368;28;20514;-66
2021/03/09 11:32:44;;;;;;;12.03;10.93;;;13.20;62.50;;;;;;4994419;28;20509;-66
2021/03/09 11:35:10;;;;;;;12.70;11.50;;;13.70;60.80;;;;;;4992910;28;20516;-67
2021/03/09 11:37:36;;;;;;;11.80;10.90;;;14.10;58.80;;;;;;4993212;28;20211;-67
2021/03/09 11:40:04;;;;;;;12.03;11.00;;;14.10;56.70;;;;;;4992991;28;20987;-67
2021/03/09 11:42:29;;;;;;;11.07;10.07;;;13.90;55.80;;;;;;4993641;28;20211;-67
2021/03/09 11:44:55;;;;;;;12.53;11.30;;;14.00;55.30;;;;;;4991860;28;20466;-67
2021/03/09 11:47:21;;;;;;;12.57;11.50;;;14.30;55.30;;;;;;4992496;28;20728;-68
2021/03/09 11:49:47;;;;;;;12.43;11.40;;;14.50;55.30;;;;;;4992830;28;20179;-68
2021/03/09 11:52:12;;;;;;;11.17;10.20;;;14.50;55.50;;;;;;4992500;28;20830;-67
2021/03/09 11:54:38;;;;;;;11.50;10.27;;;15.20;55.10;;;;;;4992710;28;20645;-68
2021/03/09 11:57:04;;;;;;;11.30;10.40;;;15.30;54.80;;;;;;4992768;28;20638;-68
2021/03/09 11:59:29;;;;;;;12.10;11.00;;;15.10;52.80;;;;;;4989079;28;20234;-68
2021/03/09 12:01:55;;;;;;;12.63;11.63;;;15.70;53.10;;;;;;4998753;28;20439;-68
2021/03/09 12:04:21;;;;;;;12.27;11.10;;;16.80;55.00;;;;;;4992278;28;20175;-68
2021/03/09 12:06:46;;;;;;;12.70;11.60;;;17.10;50.70;;;;;;4992932;28;20430;-68
2021/03/09 12:09:12;;;;;;;11.80;10.70;;;17.10;50.10;;;;;;4992400;28;20178;-68
2021/03/09 12:11:37;;;;;;;11.33;10.23;;;17.10;49.10;;;;;;4992540;28;20196;-68
2021/03/09 12:14:03;;;;;;;10.90;10.10;;;17.00;47.00;;;;;;4992145;28;20622;-68
2021/03/09 12:16:29;;;;;;;10.70;9.67;;;17.00;47.60;;;;;;4992740;28;20211;-68
2021/03/09 12:18:54;;;;;;;10.80;9.97;;;17.70;46.30;;;;;;4992228;28;20566;-68
2021/03/09 12:21:20;;;;;;;11.73;10.63;;;18.80;51.10;;;;;;4992257;28;20462;-68
2021/03/09 12:23:46;;;;;;;11.93;10.93;;;19.40;47.80;;;;;;4991323;28;20250;-68
2021/03/09 12:26:11;;;;;;;12.70;10.07;;;19.70;47.20;;;;;;4992513;28;20187;-68
2021/03/09 12:28:37;;;;;;;10.50;9.70;;;19.50;46.90;;;;;;4992486;28;20187;-68
2021/03/09 12:31:03;;;;;;;11.93;10.90;;;19.40;46.00;;;;;;4992049;28;20735;-68
2021/03/09 12:33:29;;;;;;;12.53;11.63;;;18.80;45.60;;;;;;4992154;28;20522;-68
2021/03/09 12:35:55;;;;;;;12.47;11.57;;;17.80;46.50;;;;;;4991630;28;20447;-68
2021/03/09 12:38:20;;;;;;;11.20;10.30;;;17.30;47.50;;;;;;4992233;28;20437;-68
2021/03/09 12:40:46;;;;;;;13.47;12.27;;;17.20;47.70;;;;;;4991824;28;20697;-68
2021/03/09 12:43:11;;;;;;;11.33;10.50;;;17.40;47.80;;;;;;4992157;28;20238;-68
2021/03/09 12:45:37;;;;;;;12.80;11.70;;;18.10;47.40;;;;;;4991890;28;20175;-68